Tipanuk, Idaho
Current Conditions -  °F | °C
As of 5:58 AM on Saturday 20 Dec 2014 (Local Time) from KMUO Reporting Station
Light Rain Light Rain  
Wind Chill: 27°   Ceiling: 1800
Heat Index: 36°   Visibility: 10mi
Dew Point: 35°   Wind: 15mph
Humidity: 93%   Direction: 100°E
Pressure: 30.03"   Gusts: NA
Location:  43.2609°N, 115.781°W
Report Text: KMUO 201258Z AUTO 10013KT 10SM -RA BKN018 OVC043 02/01 A3003 RMK AO2 RAB25E31DZB31E36RAB36 CIG 018V043 SLP184 P0000 T00240014
Loading
Personal Weather Stations






























Interactive Weather Map New forecast layout! Learn more

10-Day Weather Forecast

Advertisements
Track Severe Weather on mobile